Time;durP1;ratioP1;P1;durP2;ratioP2;P2;SDS_P1;SDS_P2;PMS_P1;PMS_P2;Temp;Humidity;BMP_temperature;BMP_pressure;BME280_temperature;BME280_humidity;BME280_pressure;Samples;Min_cycle;Max_cycle;Signal;HPM_P1;HPM_P2
2023/08/02 00:00:32;;;;;;;1.88;0.90;;;;;;;;;;5022748;28;20511;-77
2023/08/02 00:02:58;;;;;;;3.08;1.10;;;;;;;;;;5021983;28;20403;-77
2023/08/02 00:05:23;;;;;;;2.42;1.10;;;;;;;;;;5020002;28;20033;-77
2023/08/02 00:07:48;;;;;;;3.67;1.10;;;;;;;;;;5021537;28;20115;-77
2023/08/02 00:10:13;;;;;;;3.80;1.40;;;;;;;;;;5019222;28;20555;-77
2023/08/02 00:12:38;;;;;;;2.42;1.00;;;;;;;;;;5020604;28;20291;-77
2023/08/02 00:15:04;;;;;;;3.25;1.30;;;;;;;;;;5020014;28;20041;-77
2023/08/02 00:17:29;;;;;;;2.80;1.05;;;;;;;;;;5021419;28;20041;-77
2023/08/02 00:19:55;;;;;;;3.47;1.20;;;;;;;;;;5019425;28;20022;-77
2023/08/02 00:22:20;;;;;;;4.65;1.33;;;;;;;;;;5018621;28;20535;-77
2023/08/02 00:24:45;;;;;;;3.20;1.17;;;;;;;;;;5020078;28;20030;-77
2023/08/02 00:27:10;;;;;;;2.88;1.00;;;;;;;;;;5022187;28;20151;-77
2023/08/02 00:29:35;;;;;;;2.97;1.35;;;;;;;;;;5024019;28;20033;-77
2023/08/02 00:32:01;;;;;;;2.20;1.00;;;;;;;;;;5023850;28;20037;-77
2023/08/02 00:34:26;;;;;;;3.17;1.42;;;;;;;;;;5024600;28;20079;-77
2023/08/02 00:36:51;;;;;;;5.05;1.08;;;;;;;;;;5023738;28;20433;-77
2023/08/02 00:39:18;;;;;;;2.47;1.00;;;;;;;;;;5023476;28;20052;-77
2023/08/02 00:41:44;;;;;;;2.50;1.20;;;;;;;;;;5023183;28;20393;-77
2023/08/02 00:44:09;;;;;;;5.03;1.23;;;;;;;;;;5023857;28;20021;-77
2023/08/02 00:46:34;;;;;;;6.57;1.33;;;;;;;;;;5024325;28;20069;-77
2023/08/02 00:48:59;;;;;;;3.90;1.20;;;;;;;;;;5027561;28;20417;-77
2023/08/02 00:51:25;;;;;;;4.00;1.20;;;;;;;;;;5022208;28;20040;-77
2023/08/02 00:53:51;;;;;;;4.38;1.30;;;;;;;;;;5019561;28;20136;-77
2023/08/02 00:56:17;;;;;;;2.80;0.98;;;;;;;;;;5024825;28;20396;-77
2023/08/02 00:58:43;;;;;;;2.35;1.10;;;;;;;;;;5021041;28;20038;-77
2023/08/02 01:01:08;;;;;;;3.42;1.00;;;;;;;;;;5026843;28;20026;-77
2023/08/02 01:03:34;;;;;;;3.30;1.15;;;;;;;;;;5022786;28;20053;-77
2023/08/02 01:06:02;;;;;;;3.33;1.27;;;;;;;;;;5024710;28;20033;-77
2023/08/02 01:08:33;;;;;;;3.30;1.05;;;;;;;;;;5020645;28;20125;-77
2023/08/02 01:11:10;;;;;;;3.95;1.10;;;;;;;;;;5021194;28;20113;-77
2023/08/02 01:13:37;;;;;;;2.40;1.15;;;;;;;;;;5022184;28;20029;-77
2023/08/02 01:16:03;;;;;;;1.90;0.80;;;;;;;;;;5022550;28;20036;-77
2023/08/02 01:18:28;;;;;;;3.17;1.10;;;;;;;;;;5022688;28;20034;-77
2023/08/02 01:20:53;;;;;;;5.53;1.13;;;;;;;;;;5023204;28;20053;-77
2023/08/02 01:23:19;;;;;;;2.80;1.05;;;;;;;;;;5021262;28;20071;-77
2023/08/02 01:25:45;;;;;;;3.08;1.17;;;;;;;;;;5022628;28;20519;-77
2023/08/02 01:28:13;;;;;;;2.03;0.80;;;;;;;;;;5030414;28;20126;-77
2023/08/02 01:30:39;;;;;;;2.42;0.98;;;;;;;;;;5020043;28;20443;-77
2023/08/02 01:33:05;;;;;;;2.47;0.90;;;;;;;;;;5023641;28;20179;-77
2023/08/02 01:35:32;;;;;;;2.55;0.82;;;;;;;;;;5020126;28;20125;-77
2023/08/02 01:37:58;;;;;;;2.63;0.90;;;;;;;;;;5024640;28;20049;-77
2023/08/02 01:40:23;;;;;;;3.92;0.93;;;;;;;;;;5018937;28;20034;-77
2023/08/02 01:42:49;;;;;;;1.60;0.70;;;;;;;;;;5024733;28;20021;-77
2023/08/02 01:45:14;;;;;;;2.15;0.90;;;;;;;;;;5019837;28;20029;-77
2023/08/02 01:47:39;;;;;;;1.65;0.70;;;;;;;;;;5024439;28;20026;-77
2023/08/02 01:50:05;;;;;;;3.80;0.80;;;;;;;;;;5019155;28;20424;-77
2023/08/02 01:52:30;;;;;;;4.63;1.10;;;;;;;;;;5024666;28;20029;-76
2023/08/02 01:54:55;;;;;;;3.35;0.90;;;;;;;;;;5021217;28;20100;-77
2023/08/02 01:57:20;;;;;;;2.35;0.63;;;;;;;;;;5022656;28;20560;-77
2023/08/02 01:59:45;;;;;;;2.28;0.90;;;;;;;;;;5012827;28;20032;-77
2023/08/02 02:02:11;;;;;;;4.97;1.10;;;;;;;;;;5022656;28;20060;-77
2023/08/02 02:04:36;;;;;;;4.35;1.00;;;;;;;;;;5021424;28;20033;-77
2023/08/02 02:07:01;;;;;;;3.80;0.80;;;;;;;;;;5022392;28;20059;-77
2023/08/02 02:09:26;;;;;;;2.70;0.70;;;;;;;;;;5020543;28;20436;-77
2023/08/02 02:11:52;;;;;;;3.73;0.90;;;;;;;;;;5023318;28;20036;-77
2023/08/02 02:14:17;;;;;;;4.15;1.27;;;;;;;;;;5020400;28;20755;-77
2023/08/02 02:16:42;;;;;;;2.53;0.73;;;;;;;;;;5027426;28;20048;-77
2023/08/02 02:19:07;;;;;;;3.08;0.90;;;;;;;;;;5028794;28;20033;-74
2023/08/02 02:21:32;;;;;;;3.45;1.02;;;;;;;;;;5020144;28;20022;-74
2023/08/02 02:23:58;;;;;;;2.43;1.07;;;;;;;;;;5031370;28;20078;-76
2023/08/02 02:26:25;;;;;;;3.40;0.98;;;;;;;;;;5026178;28;20272;-76
2023/08/02 02:28:50;;;;;;;2.80;1.25;;;;;;;;;;5019589;28;20646;-77
2023/08/02 02:31:15;;;;;;;3.35;1.10;;;;;;;;;;5022365;28;20025;-77
2023/08/02 02:33:40;;;;;;;3.00;1.30;;;;;;;;;;5020180;28;20029;-77
2023/08/02 02:36:06;;;;;;;3.60;1.10;;;;;;;;;;5021941;28;20035;-77
2023/08/02 02:38:31;;;;;;;3.58;1.17;;;;;;;;;;5019910;28;20034;-77
2023/08/02 02:40:56;;;;;;;2.80;1.00;;;;;;;;;;5020111;28;20120;-77
2023/08/02 02:43:22;;;;;;;3.30;1.10;;;;;;;;;;5027239;28;20030;-77
2023/08/02 02:45:47;;;;;;;3.43;1.10;;;;;;;;;;5021675;28;20026;-77
2023/08/02 02:48:13;;;;;;;2.85;0.93;;;;;;;;;;5021384;28;20353;-77
2023/08/02 02:50:38;;;;;;;3.00;1.00;;;;;;;;;;5019412;28;20553;-76
2023/08/02 02:53:04;;;;;;;4.00;1.23;;;;;;;;;;5025538;28;20029;-77
2023/08/02 02:55:29;;;;;;;3.50;1.08;;;;;;;;;;5024841;28;20034;-77
2023/08/02 02:57:54;;;;;;;3.63;1.10;;;;;;;;;;5021223;28;20124;-77
2023/08/02 03:00:19;;;;;;;3.53;1.00;;;;;;;;;;5007515;28;20117;-77
2023/08/02 03:02:44;;;;;;;4.07;1.20;;;;;;;;;;5020865;28;20550;-77
2023/08/02 03:05:10;;;;;;;5.35;1.30;;;;;;;;;;5021940;28;20033;-77
2023/08/02 03:07:35;;;;;;;2.75;1.20;;;;;;;;;;5020837;28;20029;-77
2023/08/02 03:10:00;;;;;;;3.13;0.95;;;;;;;;;;5020928;28;20037;-77
2023/08/02 03:12:25;;;;;;;3.50;1.70;;;;;;;;;;5003192;28;20049;-77
2023/08/02 03:14:51;;;;;;;5.65;1.40;;;;;;;;;;5022072;28;20033;-77
2023/08/02 03:17:16;;;;;;;3.58;1.10;;;;;;;;;;5020444;28;20427;-77
2023/08/02 03:19:41;;;;;;;3.22;1.25;;;;;;;;;;5021338;28;20037;-77
2023/08/02 03:22:06;;;;;;;4.40;1.55;;;;;;;;;;5019335;28;20048;-77
2023/08/02 03:24:31;;;;;;;4.13;1.40;;;;;;;;;;5020133;28;20034;-77
2023/08/02 03:26:58;;;;;;;3.42;1.50;;;;;;;;;;5021953;28;20030;-77
2023/08/02 03:29:23;;;;;;;6.78;1.85;;;;;;;;;;5022283;28;20076;-77
2023/08/02 03:31:48;;;;;;;3.65;1.40;;;;;;;;;;5030157;28;20409;-77
2023/08/02 03:34:14;;;;;;;4.07;1.15;;;;;;;;;;5022506;28;20492;-77
2023/08/02 03:36:42;;;;;;;4.53;1.10;;;;;;;;;;5019898;28;20033;-77
2023/08/02 03:39:07;;;;;;;3.13;1.35;;;;;;;;;;5021906;28;20037;-77
2023/08/02 03:41:32;;;;;;;4.82;1.20;;;;;;;;;;5018143;28;20164;-77
2023/08/02 03:43:58;;;;;;;4.32;1.30;;;;;;;;;;5017298;28;20014;-77
2023/08/02 03:46:23;;;;;;;3.17;1.13;;;;;;;;;;5036992;28;20632;-77
2023/08/02 03:48:48;;;;;;;3.28;1.08;;;;;;;;;;5029003;28;20117;-77
2023/08/02 03:51:13;;;;;;;2.65;1.25;;;;;;;;;;5025911;28;20041;-77
2023/08/02 03:53:38;;;;;;;4.10;1.27;;;;;;;;;;5018893;28;20117;-77
2023/08/02 03:56:04;;;;;;;1.88;0.80;;;;;;;;;;5019197;28;20038;-77
2023/08/02 03:58:29;;;;;;;3.00;0.80;;;;;;;;;;5022285;28;20068;-76
2023/08/02 04:00:54;;;;;;;4.13;0.98;;;;;;;;;;5029482;28;20029;-77
2023/08/02 04:03:19;;;;;;;2.55;1.20;;;;;;;;;;5023129;28;20413;-77
2023/08/02 04:05:44;;;;;;;2.63;0.75;;;;;;;;;;5026433;28;20408;-78
2023/08/02 04:08:10;;;;;;;5.13;0.90;;;;;;;;;;5027007;28;20052;-77
2023/08/02 04:10:36;;;;;;;4.72;0.88;;;;;;;;;;5025559;28;20515;-77
2023/08/02 04:13:01;;;;;;;4.93;1.20;;;;;;;;;;5026080;28;20034;-77
2023/08/02 04:15:26;;;;;;;3.22;1.20;;;;;;;;;;5029169;28;20095;-77
2023/08/02 04:17:52;;;;;;;3.05;0.95;;;;;;;;;;5032204;28;20476;-78
2023/08/02 04:20:17;;;;;;;3.63;1.13;;;;;;;;;;5024240;28;20112;-78
2023/08/02 04:22:42;;;;;;;3.65;1.02;;;;;;;;;;5021641;28;20053;-77
2023/08/02 04:25:07;;;;;;;3.25;0.98;;;;;;;;;;5022209;28;20105;-77
2023/08/02 04:27:33;;;;;;;3.80;0.90;;;;;;;;;;5024976;28;20121;-77
2023/08/02 04:29:58;;;;;;;2.50;0.80;;;;;;;;;;5022894;28;20117;-77
2023/08/02 04:32:23;;;;;;;2.03;0.70;;;;;;;;;;5025213;28;20057;-77
2023/08/02 04:34:48;;;;;;;2.97;1.00;;;;;;;;;;5023436;28;20030;-78
2023/08/02 04:37:14;;;;;;;2.67;0.80;;;;;;;;;;5025044;28;20038;-78
2023/08/02 04:39:39;;;;;;;5.13;0.95;;;;;;;;;;5027239;28;20040;-78
2023/08/02 04:42:04;;;;;;;3.45;0.90;;;;;;;;;;5029322;28;20029;-78
2023/08/02 04:44:29;;;;;;;3.15;1.27;;;;;;;;;;5029582;28;20037;-78
2023/08/02 04:46:55;;;;;;;3.55;0.70;;;;;;;;;;5029308;28;20024;-78
2023/08/02 04:49:20;;;;;;;3.47;0.90;;;;;;;;;;5030053;28;20041;-77
2023/08/02 04:51:45;;;;;;;4.13;1.10;;;;;;;;;;5029324;28;20084;-78
2023/08/02 04:54:11;;;;;;;3.08;0.90;;;;;;;;;;5025676;28;20106;-78
2023/08/02 04:56:37;;;;;;;2.40;0.80;;;;;;;;;;5023966;28;20038;-77
2023/08/02 04:59:03;;;;;;;5.10;1.35;;;;;;;;;;5024219;28;20432;-78
2023/08/02 05:01:28;;;;;;;6.75;1.00;;;;;;;;;;5039371;28;20088;-78
2023/08/02 05:03:53;;;;;;;8.40;5.30;;;;;;;;;;5023981;28;20048;-77
2023/08/02 05:06:18;;;;;;;6.20;2.40;;;;;;;;;;5025516;28;20276;-78
2023/08/02 05:08:43;;;;;;;4.50;1.45;;;;;;;;;;5024930;28;20276;-78
2023/08/02 05:11:09;;;;;;;2.60;1.27;;;;;;;;;;5030295;28;20025;-78
2023/08/02 05:13:34;;;;;;;3.22;0.90;;;;;;;;;;5023794;28;20300;-78
2023/08/02 05:15:59;;;;;;;4.20;1.20;;;;;;;;;;5027140;28;20072;-78
2023/08/02 05:18:25;;;;;;;3.97;0.95;;;;;;;;;;5024474;28;20561;-78
2023/08/02 05:20:50;;;;;;;4.38;1.10;;;;;;;;;;5025604;28;20511;-78
2023/08/02 05:23:15;;;;;;;3.63;0.80;;;;;;;;;;5024082;28;20028;-77
2023/08/02 05:25:41;;;;;;;3.53;1.15;;;;;;;;;;5024352;28;20511;-78
2023/08/02 05:28:06;;;;;;;5.15;1.15;;;;;;;;;;5023757;28;20072;-78
2023/08/02 05:30:32;;;;;;;4.32;1.27;;;;;;;;;;5028807;28;20034;-78
2023/08/02 05:32:57;;;;;;;8.00;1.67;;;;;;;;;;5028515;28;21384;-78
2023/08/02 05:35:23;;;;;;;5.07;1.35;;;;;;;;;;5027547;28;20033;-78
2023/08/02 05:37:49;;;;;;;3.22;1.15;;;;;;;;;;5027029;28;20076;-78
2023/08/02 05:40:14;;;;;;;3.13;1.27;;;;;;;;;;5024799;28;20033;-78
2023/08/02 05:42:39;;;;;;;3.55;1.00;;;;;;;;;;5033018;28;20028;-78
2023/08/02 05:45:05;;;;;;;3.00;1.20;;;;;;;;;;5025142;28;20057;-78
2023/08/02 05:47:30;;;;;;;3.95;1.33;;;;;;;;;;5025143;28;20025;-78
2023/08/02 05:49:56;;;;;;;5.07;1.10;;;;;;;;;;5020423;28;20038;-78
2023/08/02 05:52:21;;;;;;;3.72;1.23;;;;;;;;;;5025273;28;20029;-78
2023/08/02 05:54:46;;;;;;;3.67;1.50;;;;;;;;;;5021940;28;20435;-78
2023/08/02 05:57:11;;;;;;;3.67;1.17;;;;;;;;;;5024320;28;20288;-78
2023/08/02 05:59:37;;;;;;;3.83;1.73;;;;;;;;;;5028139;28;20295;-78
2023/08/02 06:02:03;;;;;;;4.93;0.88;;;;;;;;;;5022114;28;20285;-78
2023/08/02 06:04:28;;;;;;;3.83;1.20;;;;;;;;;;5025499;28;20029;-78
2023/08/02 06:06:53;;;;;;;3.38;1.00;;;;;;;;;;5026063;28;20439;-78
2023/08/02 06:09:19;;;;;;;4.30;1.40;;;;;;;;;;5023384;28;20034;-78
2023/08/02 06:11:44;;;;;;;3.70;1.38;;;;;;;;;;5026127;28;20041;-78
2023/08/02 06:14:10;;;;;;;4.67;1.20;;;;;;;;;;5023101;28;20038;-78
2023/08/02 06:16:35;;;;;;;4.27;1.20;;;;;;;;;;5026541;28;20267;-78
2023/08/02 06:19:00;;;;;;;5.90;2.17;;;;;;;;;;5023993;28;20779;-78
2023/08/02 06:21:25;;;;;;;5.68;2.38;;;;;;;;;;5023375;28;20034;-78
2023/08/02 06:23:50;;;;;;;5.32;1.65;;;;;;;;;;5022554;28;20396;-78
2023/08/02 06:26:16;;;;;;;4.07;1.50;;;;;;;;;;5026641;28;20108;-78
2023/08/02 06:28:41;;;;;;;3.63;1.30;;;;;;;;;;5024086;28;20556;-78
2023/08/02 06:31:07;;;;;;;3.22;0.82;;;;;;;;;;5027837;28;20064;-78
2023/08/02 06:33:32;;;;;;;4.60;1.07;;;;;;;;;;5027110;28;20060;-77
2023/08/02 06:35:57;;;;;;;3.03;1.17;;;;;;;;;;5024856;28;20265;-78
2023/08/02 06:38:22;;;;;;;3.73;1.50;;;;;;;;;;5027838;28;20260;-78
2023/08/02 06:40:47;;;;;;;6.80;1.08;;;;;;;;;;5029265;28;20287;-78
2023/08/02 06:43:13;;;;;;;4.60;1.08;;;;;;;;;;5028610;28;20026;-78
2023/08/02 06:45:44;;;;;;;2.83;1.37;;;;;;;;;;5028254;28;20095;-78
2023/08/02 06:48:09;;;;;;;3.80;1.17;;;;;;;;;;5027752;28;20911;-78
2023/08/02 06:50:37;;;;;;;4.57;1.37;;;;;;;;;;5026506;28;20060;-78
2023/08/02 06:53:04;;;;;;;4.68;1.27;;;;;;;;;;5024859;28;20295;-78
2023/08/02 06:55:29;;;;;;;4.30;1.63;;;;;;;;;;5027198;28;20089;-78
2023/08/02 06:57:54;;;;;;;6.23;2.20;;;;;;;;;;5030187;28;20088;-78
2023/08/02 07:00:19;;;;;;;3.53;1.23;;;;;;;;;;5028408;28;20386;-78
2023/08/02 07:02:44;;;;;;;5.22;1.40;;;;;;;;;;5027284;28;20659;-78
2023/08/02 07:05:10;;;;;;;4.67;1.50;;;;;;;;;;5029617;28;20080;-78
2023/08/02 07:07:35;;;;;;;4.40;1.30;;;;;;;;;;5028459;28;20269;-78
2023/08/02 07:10:00;;;;;;;2.77;1.00;;;;;;;;;;5030160;28;20272;-78
2023/08/02 07:12:25;;;;;;;3.87;2.47;;;;;;;;;;5030449;28;20269;-78
2023/08/02 07:14:50;;;;;;;5.13;1.87;;;;;;;;;;5028185;28;20747;-78
2023/08/02 07:17:15;;;;;;;4.77;1.43;;;;;;;;;;5029533;28;20280;-78
2023/08/02 07:19:41;;;;;;;3.13;1.30;;;;;;;;;;5027078;28;20304;-78
2023/08/02 07:22:06;;;;;;;4.45;1.30;;;;;;;;;;5030213;28;20316;-78
2023/08/02 07:24:31;;;;;;;5.05;1.40;;;;;;;;;;5037661;28;20103;-78
2023/08/02 07:26:56;;;;;;;4.18;1.20;;;;;;;;;;5027949;28;20087;-78
2023/08/02 07:29:21;;;;;;;5.23;1.93;;;;;;;;;;5029275;28;20037;-78
2023/08/02 07:31:47;;;;;;;4.97;1.47;;;;;;;;;;5027956;28;20281;-78
2023/08/02 07:34:12;;;;;;;3.78;1.33;;;;;;;;;;5029856;28;20286;-78
2023/08/02 07:36:37;;;;;;;5.03;1.30;;;;;;;;;;5034774;28;20041;-78
2023/08/02 07:39:02;;;;;;;5.32;1.65;;;;;;;;;;5033580;28;20032;-78
2023/08/02 07:41:28;;;;;;;3.95;1.50;;;;;;;;;;5031418;28;20026;-78
2023/08/02 07:43:53;;;;;;;4.78;1.50;;;;;;;;;;5035224;28;20032;-78
2023/08/02 07:46:19;;;;;;;2.63;1.17;;;;;;;;;;5032529;28;20388;-78
2023/08/02 07:48:44;;;;;;;4.85;2.08;;;;;;;;;;5035605;28;20272;-79
2023/08/02 07:51:09;;;;;;;4.25;1.60;;;;;;;;;;5035411;28;20036;-78
2023/08/02 07:53:35;;;;;;;4.30;1.40;;;;;;;;;;5031493;28;20447;-78
2023/08/02 07:56:01;;;;;;;4.90;1.37;;;;;;;;;;5034757;28;20278;-78
2023/08/02 07:58:26;;;;;;;6.38;1.63;;;;;;;;;;5031396;28;20368;-78
2023/08/02 08:00:51;;;;;;;6.03;1.70;;;;;;;;;;5037841;28;20037;-78
2023/08/02 08:03:16;;;;;;;4.50;1.43;;;;;;;;;;5033889;28;20277;-78
2023/08/02 08:05:42;;;;;;;4.93;1.50;;;;;;;;;;5035896;28;20283;-78
2023/08/02 08:08:07;;;;;;;4.50;1.65;;;;;;;;;;5037378;28;20298;-78
2023/08/02 08:10:32;;;;;;;4.83;1.60;;;;;;;;;;5030012;28;20101;-78
2023/08/02 08:12:57;;;;;;;3.80;1.52;;;;;;;;;;5035531;28;20340;-78
2023/08/02 08:15:23;;;;;;;3.97;1.58;;;;;;;;;;5035287;28;20060;-78
2023/08/02 08:17:48;;;;;;;3.83;1.40;;;;;;;;;;5032743;28;20037;-78
2023/08/02 08:20:13;;;;;;;5.95;1.95;;;;;;;;;;5033350;28;20097;-79
2023/08/02 08:22:38;;;;;;;5.17;1.93;;;;;;;;;;5032682;28;20021;-79
2023/08/02 08:25:04;;;;;;;4.53;1.83;;;;;;;;;;5033080;28;20276;-79
2023/08/02 08:27:29;;;;;;;5.38;2.22;;;;;;;;;;5035927;28;20302;-78
2023/08/02 08:29:54;;;;;;;6.27;1.93;;;;;;;;;;5032963;28;20072;-79
2023/08/02 08:32:22;;;;;;;1.97;1.00;;;;;;;;;;5035940;28;20303;-78
2023/08/02 08:34:47;;;;;;;4.30;1.38;;;;;;;;;;5031988;28;20284;-78
2023/08/02 08:37:12;;;;;;;3.10;1.47;;;;;;;;;;5034950;28;20109;-78
2023/08/02 08:39:38;;;;;;;3.93;1.70;;;;;;;;;;5033017;28;20284;-79
2023/08/02 08:42:07;;;;;;;5.78;1.60;;;;;;;;;;5039345;28;20798;-78
2023/08/02 08:44:35;;;;;;;4.45;1.77;;;;;;;;;;5034927;28;20084;-78
2023/08/02 08:47:03;;;;;;;4.95;1.63;;;;;;;;;;5035133;28;20030;-79
2023/08/02 08:49:28;;;;;;;6.05;1.58;;;;;;;;;;5031299;28;20033;-78
2023/08/02 08:51:57;;;;;;;4.20;1.67;;;;;;;;;;5032060;28;20084;-78
2023/08/02 08:54:24;;;;;;;3.70;1.55;;;;;;;;;;5035448;28;20117;-78
2023/08/02 08:56:49;;;;;;;4.00;1.70;;;;;;;;;;5035441;28;20374;-79
2023/08/02 08:59:14;;;;;;;4.38;1.70;;;;;;;;;;5033505;28;20084;-78
2023/08/02 09:01:40;;;;;;;3.78;1.40;;;;;;;;;;5031183;28;20081;-78
2023/08/02 09:04:05;;;;;;;3.88;1.50;;;;;;;;;;5034764;28;20030;-78
2023/08/02 09:06:31;;;;;;;3.83;2.03;;;;;;;;;;5033257;28;20038;-78
2023/08/02 09:08:56;;;;;;;4.25;2.20;;;;;;;;;;5034186;28;20156;-78
2023/08/02 09:11:22;;;;;;;4.63;1.75;;;;;;;;;;5030744;28;20030;-78
2023/08/02 09:13:47;;;;;;;4.68;1.85;;;;;;;;;;5033769;28;20030;-78
2023/08/02 09:16:14;;;;;;;3.30;1.40;;;;;;;;;;5031417;28;20022;-79
2023/08/02 09:18:47;;;;;;;3.38;1.35;;;;;;;;;;5034512;28;20022;-79
2023/08/02 09:21:14;;;;;;;5.00;1.80;;;;;;;;;;5033431;28;20033;-79
2023/08/02 09:23:45;;;;;;;4.70;1.60;;;;;;;;;;5031559;28;20037;-78
2023/08/02 09:26:17;;;;;;;3.75;1.48;;;;;;;;;;5034397;28;20080;-79
2023/08/02 09:28:59;;;;;;;3.85;1.30;;;;;;;;;;5034107;28;20362;-79
2023/08/02 09:31:24;;;;;;;;;;;;;;;;;;5033806;28;20025;-78
2023/08/02 09:33:51;;;;;;;6.97;1.57;;;;;;;;;;5033817;28;20510;-78
2023/08/02 09:36:25;;;;;;;4.68;1.98;;;;;;;;;;5034939;28;20038;-78
2023/08/02 09:38:54;;;;;;;3.90;1.52;;;;;;;;;;5029943;28;20032;-79
2023/08/02 09:41:23;;;;;;;5.22;1.90;;;;;;;;;;5033286;28;20039;-78
2023/08/02 09:43:49;;;;;;;4.95;1.95;;;;;;;;;;5031947;28;20030;-79
2023/08/02 09:46:25;;;;;;;7.40;1.88;;;;;;;;;;5036965;28;20041;-79
2023/08/02 09:48:51;;;;;;;6.88;2.08;;;;;;;;;;5030877;28;20030;-79
2023/08/02 09:51:16;;;;;;;4.78;1.50;;;;;;;;;;5034779;28;20040;-78
2023/08/02 09:53:52;;;;;;;3.93;1.80;;;;;;;;;;5030406;28;20045;-78
2023/08/02 09:56:17;;;;;;;4.95;1.67;;;;;;;;;;5031329;28;20336;-78
2023/08/02 09:58:44;;;;;;;3.83;1.40;;;;;;;;;;5033019;28;20044;-79
2023/08/02 10:01:10;;;;;;;3.60;1.38;;;;;;;;;;5035942;28;20049;-79
2023/08/02 10:03:35;;;;;;;4.75;1.60;;;;;;;;;;5033584;28;20037;-78
2023/08/02 10:06:06;;;;;;;4.78;1.50;;;;;;;;;;5032114;28;20064;-78
2023/08/02 10:08:31;;;;;;;5.93;1.73;;;;;;;;;;5033725;28;20067;-79
2023/08/02 10:10:58;;;;;;;6.05;1.58;;;;;;;;;;5034868;28;20168;-79
2023/08/02 10:13:30;;;;;;;3.92;1.55;;;;;;;;;;5036040;28;20036;-78
2023/08/02 10:15:55;;;;;;;3.03;1.30;;;;;;;;;;5031385;28;20037;-78
2023/08/02 10:18:21;;;;;;;4.07;1.52;;;;;;;;;;5033342;28;20112;-79
2023/08/02 10:20:46;;;;;;;3.22;1.60;;;;;;;;;;5029976;28;20026;-79
2023/08/02 10:23:11;;;;;;;4.55;1.85;;;;;;;;;;5034759;28;20028;-78
2023/08/02 10:25:37;;;;;;;2.70;1.40;;;;;;;;;;5033759;28;20040;-78
2023/08/02 10:28:02;;;;;;;5.07;2.80;;;;;;;;;;5030769;28;20354;-79
2023/08/02 10:30:29;;;;;;;3.40;1.50;;;;;;;;;;5033977;28;20042;-79
2023/08/02 10:33:09;;;;;;;5.03;1.50;;;;;;;;;;5032125;28;20030;-78
2023/08/02 10:35:53;;;;;;;4.20;1.20;;;;;;;;;;5035728;28;20038;-78
2023/08/02 10:38:18;;;;;;;2.70;1.30;;;;;;;;;;5030989;28;20069;-79
2023/08/02 10:41:03;;;;;;;5.67;1.77;;;;;;;;;;5032902;28;20178;-79
2023/08/02 10:43:29;;;;;;;4.50;1.50;;;;;;;;;;5038832;28;20287;-78
2023/08/02 10:46:12;;;;;;;7.30;1.80;;;;;;;;;;5031351;28;20030;-79
2023/08/02 10:48:38;;;;;;;4.82;1.65;;;;;;;;;;5032997;28;20293;-78
2023/08/02 10:51:03;;;;;;;5.57;4.40;;;;;;;;;;5034338;28;20029;-79
2023/08/02 10:53:28;;;;;;;4.53;1.90;;;;;;;;;;5033416;28;20021;-78
2023/08/02 10:56:03;;;;;;;4.13;1.60;;;;;;;;;;5030496;28;20060;-79
2023/08/02 10:58:43;;;;;;;4.53;2.10;;;;;;;;;;5034692;28;20037;-78
2023/08/02 11:01:12;;;;;;;5.63;2.70;;;;;;;;;;5032263;28;20085;-79
2023/08/02 11:03:38;;;;;;;5.55;2.10;;;;;;;;;;5032699;28;20036;-78
2023/08/02 11:06:03;;;;;;;3.42;1.50;;;;;;;;;;5034858;28;20034;-78
2023/08/02 11:08:28;;;;;;;4.00;1.77;;;;;;;;;;5031606;28;20029;-78
2023/08/02 11:10:54;;;;;;;5.37;1.80;;;;;;;;;;5031789;28;20758;-79
2023/08/02 11:13:20;;;;;;;6.10;1.65;;;;;;;;;;5031278;28;20060;-79
2023/08/02 11:15:45;;;;;;;3.05;1.60;;;;;;;;;;5034040;28;20033;-78
2023/08/02 11:18:11;;;;;;;4.25;1.40;;;;;;;;;;5033075;28;20045;-79
2023/08/02 11:20:38;;;;;;;6.03;1.85;;;;;;;;;;5030418;28;20052;-79
2023/08/02 11:23:22;;;;;;;5.22;2.00;;;;;;;;;;5032780;28;20040;-78
2023/08/02 11:25:47;;;;;;;5.95;2.20;;;;;;;;;;5033425;28;20030;-79
2023/08/02 11:28:13;;;;;;;3.58;1.65;;;;;;;;;;5030399;28;20084;-79
2023/08/02 11:30:38;;;;;;;4.22;1.60;;;;;;;;;;5033359;28;20030;-79
2023/08/02 11:33:03;;;;;;;3.70;1.37;;;;;;;;;;5037358;28;20157;-78
2023/08/02 11:35:29;;;;;;;4.07;1.60;;;;;;;;;;5033671;28;20275;-79
2023/08/02 11:37:54;;;;;;;2.53;1.20;;;;;;;;;;5034406;28;20491;-78
2023/08/02 11:40:19;;;;;;;3.75;1.83;;;;;;;;;;5033242;28;20304;-79
2023/08/02 11:42:48;;;;;;;2.60;1.35;;;;;;;;;;5032791;28;20034;-78
2023/08/02 11:45:14;;;;;;;5.40;2.15;;;;;;;;;;5035182;28;20029;-78
2023/08/02 11:47:39;;;;;;;4.15;1.83;;;;;;;;;;5029472;28;20030;-78
2023/08/02 11:50:04;;;;;;;3.07;1.73;;;;;;;;;;5032452;28;20036;-78
2023/08/02 11:52:31;;;;;;;3.30;1.33;;;;;;;;;;5031180;28;20268;-78
2023/08/02 11:54:56;;;;;;;4.65;1.73;;;;;;;;;;5029457;28;20133;-78
2023/08/02 11:57:22;;;;;;;4.85;2.20;;;;;;;;;;5030565;28;20425;-78
2023/08/02 11:59:48;;;;;;;3.53;1.48;;;;;;;;;;5032211;28;20396;-78
2023/08/02 12:02:27;;;;;;;4.25;1.70;;;;;;;;;;5035396;28;20030;-78
2023/08/02 12:04:53;;;;;;;3.78;1.73;;;;;;;;;;5033023;28;20025;-78
2023/08/02 12:07:25;;;;;;;5.13;2.20;;;;;;;;;;5013547;28;20033;-78
2023/08/02 12:09:51;;;;;;;4.07;2.10;;;;;;;;;;5033952;28;20060;-78
2023/08/02 12:12:16;;;;;;;6.13;3.17;;;;;;;;;;5029854;28;20025;-78
2023/08/02 12:14:41;;;;;;;3.50;1.80;;;;;;;;;;5028845;28;21357;-78
2023/08/02 12:17:14;;;;;;;6.43;2.23;;;;;;;;;;5035462;28;20824;-78
2023/08/02 12:19:40;;;;;;;3.05;1.45;;;;;;;;;;5035795;28;20296;-78
2023/08/02 12:22:06;;;;;;;3.40;1.77;;;;;;;;;;5036961;28;20033;-78
2023/08/02 12:24:31;;;;;;;3.22;1.80;;;;;;;;;;5033185;28;20033;-78
2023/08/02 12:26:56;;;;;;;2.85;1.27;;;;;;;;;;5033404;28;20116;-78
2023/08/02 12:29:23;;;;;;;3.70;2.08;;;;;;;;;;5041611;28;20091;-78
2023/08/02 12:31:48;;;;;;;4.50;1.75;;;;;;;;;;5035595;28;20030;-78
2023/08/02 12:34:13;;;;;;;4.90;2.33;;;;;;;;;;5033473;28;20068;-78
2023/08/02 12:36:38;;;;;;;3.50;1.60;;;;;;;;;;5037005;28;20021;-78
2023/08/02 12:39:04;;;;;;;3.00;1.35;;;;;;;;;;5033146;28;20690;-78
2023/08/02 12:41:30;;;;;;;5.32;1.70;;;;;;;;;;5034380;28;20061;-78
2023/08/02 12:43:55;;;;;;;3.70;1.60;;;;;;;;;;5033428;28;20044;-78
2023/08/02 12:46:21;;;;;;;3.35;1.75;;;;;;;;;;5034716;28;20471;-78
2023/08/02 12:48:48;;;;;;;2.83;1.50;;;;;;;;;;5031254;28;20093;-78
2023/08/02 12:51:13;;;;;;;4.53;1.67;;;;;;;;;;5032066;28;20124;-78
2023/08/02 12:53:39;;;;;;;4.97;1.92;;;;;;;;;;5034922;28;20464;-78
2023/08/02 12:56:04;;;;;;;4.57;1.42;;;;;;;;;;5041246;28;20056;-78
2023/08/02 12:58:30;;;;;;;3.92;1.50;;;;;;;;;;5032666;28;20037;-78
2023/08/02 13:00:55;;;;;;;2.90;1.17;;;;;;;;;;5039089;28;20029;-78
2023/08/02 13:03:20;;;;;;;4.00;1.38;;;;;;;;;;5035633;28;20022;-78
2023/08/02 13:05:46;;;;;;;3.73;1.30;;;;;;;;;;5032854;28;20495;-78
2023/08/02 13:08:13;;;;;;;3.70;1.73;;;;;;;;;;5033774;28;20750;-78
2023/08/02 13:10:38;;;;;;;3.08;1.33;;;;;;;;;;5033169;28;20292;-77
2023/08/02 13:13:03;;;;;;;2.70;1.00;;;;;;;;;;5034685;28;20065;-78
2023/08/02 13:15:29;;;;;;;3.03;1.07;;;;;;;;;;5031755;28;20030;-78
2023/08/02 13:17:54;;;;;;;2.67;1.10;;;;;;;;;;5034008;28;20979;-78
2023/08/02 13:20:19;;;;;;;3.75;1.17;;;;;;;;;;5032739;28;20037;-78
2023/08/02 13:22:44;;;;;;;5.17;1.87;;;;;;;;;;5029624;28;20492;-78
2023/08/02 13:25:10;;;;;;;3.17;1.30;;;;;;;;;;5038190;28;20288;-77
2023/08/02 13:27:35;;;;;;;4.80;1.40;;;;;;;;;;5039193;28;20280;-78
2023/08/02 13:30:01;;;;;;;3.20;1.63;;;;;;;;;;5032188;28;20031;-78
2023/08/02 13:32:26;;;;;;;6.72;1.52;;;;;;;;;;5030209;28;20288;-78
2023/08/02 13:34:52;;;;;;;3.13;1.40;;;;;;;;;;5033218;28;20034;-78
2023/08/02 13:37:17;;;;;;;5.20;1.30;;;;;;;;;;5031109;28;20045;-78
2023/08/02 13:39:42;;;;;;;3.00;1.27;;;;;;;;;;5032175;28;20037;-78
2023/08/02 13:42:07;;;;;;;3.10;1.17;;;;;;;;;;5032807;28;20283;-78
2023/08/02 13:44:33;;;;;;;2.42;1.08;;;;;;;;;;5039860;28;20279;-78
2023/08/02 13:46:58;;;;;;;2.93;1.33;;;;;;;;;;5032516;28;20409;-78
2023/08/02 13:49:23;;;;;;;4.07;1.30;;;;;;;;;;5032319;28;20272;-78
2023/08/02 13:51:49;;;;;;;3.25;1.58;;;;;;;;;;5030042;28;20034;-78
2023/08/02 13:54:14;;;;;;;2.88;1.50;;;;;;;;;;5033239;28;20097;-78
2023/08/02 13:56:39;;;;;;;2.70;1.20;;;;;;;;;;5032850;28;20083;-78
2023/08/02 13:59:04;;;;;;;2.53;1.00;;;;;;;;;;5029352;28;20711;-78
2023/08/02 14:01:29;;;;;;;3.00;1.45;;;;;;;;;;5038161;28;20796;-78
2023/08/02 14:03:55;;;;;;;3.53;1.30;;;;;;;;;;5037981;28;20026;-77
2023/08/02 14:06:20;;;;;;;3.77;1.17;;;;;;;;;;5036380;28;20759;-77
2023/08/02 14:08:45;;;;;;;4.07;1.45;;;;;;;;;;5033055;28;20314;-77
2023/08/02 14:11:10;;;;;;;5.73;1.57;;;;;;;;;;5037238;28;20532;-77
2023/08/02 14:13:35;;;;;;;3.30;1.40;;;;;;;;;;5025819;28;20284;-77
2023/08/02 14:16:01;;;;;;;3.23;1.60;;;;;;;;;;5028713;28;20060;-77
2023/08/02 14:18:26;;;;;;;3.35;1.52;;;;;;;;;;5025958;28;20812;-77
2023/08/02 14:20:51;;;;;;;3.77;1.00;;;;;;;;;;5025463;28;20048;-77
2023/08/02 14:23:17;;;;;;;4.23;1.37;;;;;;;;;;5029357;28;20280;-77
2023/08/02 14:25:42;;;;;;;2.80;1.13;;;;;;;;;;5032704;28;20286;-77
2023/08/02 14:28:08;;;;;;;3.07;1.33;;;;;;;;;;5024545;28;20280;-77
2023/08/02 14:30:33;;;;;;;2.42;1.17;;;;;;;;;;5023508;28;20307;-77
2023/08/02 14:32:59;;;;;;;4.85;1.65;;;;;;;;;;5024076;28;20025;-76
2023/08/02 14:35:24;;;;;;;7.43;1.60;;;;;;;;;;5025536;28;20370;-77